Time;durP1;ratioP1;P1;durP2;ratioP2;P2;SDS_P1;SDS_P2;PMS_P1;PMS_P2;Temp;Humidity;BMP_temperature;BMP_pressure;BME280_temperature;BME280_humidity;BME280_pressure;Samples;Min_cycle;Max_cycle;Signal;HPM_P1;HPM_P2
2023/11/17 00:00:02;;;;;;;45.50;32.47;;;16.80;71.30;;;;;;338824;29;978;-56
2023/11/17 00:00:13;;;;;;;45.95;33.10;;;16.80;71.30;;;;;;338948;29;918;-56
2023/11/17 00:00:24;;;;;;;46.28;34.42;;;16.80;71.20;;;;;;338919;29;1387;-56
2023/11/17 00:00:35;;;;;;;45.50;34.72;;;16.80;71.20;;;;;;338909;29;969;-55
2023/11/17 00:00:46;;;;;;;44.78;34.10;;;16.80;71.20;;;;;;338818;29;1001;-57
2023/11/17 00:00:57;;;;;;;44.20;33.28;;;16.80;71.20;;;;;;338870;29;1143;-57
2023/11/17 00:01:08;;;;;;;44.72;33.63;;;16.70;71.20;;;;;;338931;29;878;-57
2023/11/17 00:01:20;;;;;;;45.05;33.80;;;16.80;71.20;;;;;;338958;29;898;-55
2023/11/17 00:01:31;;;;;;;44.22;33.22;;;16.80;71.30;;;;;;338863;29;967;-57
2023/11/17 00:01:42;;;;;;;45.28;32.85;;;16.80;71.30;;;;;;338969;29;973;-55
2023/11/17 00:01:52;;;;;;;44.67;33.03;;;16.80;71.30;;;;;;338900;29;1085;-57
2023/11/17 00:02:03;;;;;;;44.27;32.83;;;16.80;71.20;;;;;;338995;29;866;-55
2023/11/17 00:02:14;;;;;;;44.03;33.15;;;16.80;71.30;;;;;;338809;29;966;-57
2023/11/17 00:02:25;;;;;;;45.28;33.25;;;16.80;71.20;;;;;;338908;29;1148;-56
2023/11/17 00:02:36;;;;;;;44.63;32.95;;;16.80;71.30;;;;;;338922;29;1116;-57
2023/11/17 00:02:46;;;;;;;43.47;32.70;;;16.70;71.30;;;;;;338887;29;1012;-55
2023/11/17 00:02:57;;;;;;;42.70;32.33;;;16.80;71.30;;;;;;338854;29;958;-55
2023/11/17 00:03:08;;;;;;;46.75;33.40;;;16.80;71.30;;;;;;338920;29;1885;-56
2023/11/17 00:03:19;;;;;;;48.63;34.07;;;16.80;71.30;;;;;;338896;29;1081;-56
2023/11/17 00:03:29;;;;;;;48.90;34.30;;;16.80;71.30;;;;;;338919;29;1008;-56
2023/11/17 00:03:40;;;;;;;47.13;33.90;;;16.80;71.30;;;;;;338833;29;1017;-56
2023/11/17 00:03:51;;;;;;;46.78;34.10;;;16.80;71.30;;;;;;338911;29;1001;-58
2023/11/17 00:04:02;;;;;;;45.97;33.70;;;16.80;71.30;;;;;;338946;29;944;-56
2023/11/17 00:04:14;;;;;;;45.82;33.62;;;16.80;71.20;;;;;;338894;29;1124;-57
2023/11/17 00:04:25;;;;;;;45.78;33.63;;;16.80;71.20;;;;;;338776;29;969;-55
2023/11/17 00:04:35;;;;;;;46.20;34.10;;;16.80;71.20;;;;;;338818;29;1017;-57
2023/11/17 00:04:46;;;;;;;45.85;33.55;;;16.80;71.20;;;;;;338956;29;912;-55
2023/11/17 00:04:57;;;;;;;47.25;33.17;;;16.80;71.20;;;;;;338906;29;877;-57
2023/11/17 00:05:07;;;;;;;47.03;33.10;;;16.80;71.20;;;;;;338832;29;1727;-56
2023/11/17 00:05:21;;;;;;;46.80;33.05;;;16.80;71.20;;;;;;338916;29;1299;-55
2023/11/17 00:05:31;;;;;;;45.13;33.08;;;16.80;71.20;;;;;;338798;29;1081;-57
2023/11/17 00:05:42;;;;;;;46.00;33.50;;;16.80;71.20;;;;;;338857;29;1301;-56
2023/11/17 00:05:54;;;;;;;45.70;33.42;;;16.80;71.10;;;;;;338848;29;815;-55
2023/11/17 00:06:05;;;;;;;45.08;33.25;;;16.80;71.10;;;;;;338834;29;1124;-56
2023/11/17 00:06:16;;;;;;;45.88;33.25;;;16.90;71.20;;;;;;338962;29;874;-57
2023/11/17 00:06:27;;;;;;;47.28;33.15;;;16.80;71.10;;;;;;338968;29;935;-56
2023/11/17 00:06:37;;;;;;;46.67;33.47;;;16.80;71.10;;;;;;338889;29;1028;-56
2023/11/17 00:06:48;;;;;;;46.13;34.15;;;16.80;71.10;;;;;;338867;29;1092;-56
2023/11/17 00:06:59;;;;;;;44.80;33.70;;;16.80;71.10;;;;;;338905;29;835;-56
2023/11/17 00:07:10;;;;;;;45.60;33.33;;;16.80;71.10;;;;;;338811;29;1101;-57
2023/11/17 00:07:20;;;;;;;45.17;33.03;;;16.80;71.10;;;;;;338894;29;1028;-56
2023/11/17 00:07:31;;;;;;;46.45;33.17;;;16.80;71.10;;;;;;338911;29;1141;-56
2023/11/17 00:07:42;;;;;;;47.20;33.20;;;16.80;71.10;;;;;;338851;29;965;-56
2023/11/17 00:07:54;;;;;;;47.97;33.47;;;16.80;71.10;;;;;;338874;29;1081;-56
2023/11/17 00:08:04;;;;;;;46.63;33.72;;;16.80;71.10;;;;;;338910;29;1112;-56
2023/11/17 00:08:15;;;;;;;45.78;34.03;;;16.80;71.10;;;;;;338825;29;1061;-56
2023/11/17 00:08:28;;;;;;;46.10;34.22;;;16.80;71.10;;;;;;338897;29;1092;-56
2023/11/17 00:08:39;;;;;;;46.92;34.00;;;16.80;71.10;;;;;;338857;29;946;-56
2023/11/17 00:08:50;;;;;;;47.50;33.50;;;16.80;71.10;;;;;;338806;29;1148;-57
2023/11/17 00:09:01;;;;;;;46.23;33.00;;;16.80;71.10;;;;;;338918;29;978;-57
2023/11/17 00:09:12;;;;;;;45.30;33.00;;;16.80;71.10;;;;;;338924;29;1120;-56
2023/11/17 00:09:23;;;;;;;45.85;33.47;;;16.80;71.10;;;;;;338859;29;1059;-56
2023/11/17 00:09:33;;;;;;;43.93;32.80;;;16.90;71.10;;;;;;338927;29;966;-56
2023/11/17 00:09:44;;;;;;;44.60;33.13;;;16.80;71.10;;;;;;338977;29;951;-56
2023/11/17 00:09:56;;;;;;;44.72;32.85;;;16.80;71.10;;;;;;338769;29;1152;-56
2023/11/17 00:10:08;;;;;;;46.38;33.13;;;16.80;71.10;;;;;;338905;29;1968;-56
2023/11/17 00:10:18;;;;;;;46.78;32.90;;;16.80;71.10;;;;;;338930;29;993;-57
2023/11/17 00:10:29;;;;;;;47.23;32.97;;;16.80;71.20;;;;;;338793;29;1120;-56
2023/11/17 00:10:40;;;;;;;45.00;32.70;;;16.80;71.20;;;;;;338911;29;890;-56
2023/11/17 00:10:52;;;;;;;45.42;33.28;;;16.80;71.20;;;;;;338959;29;935;-56
2023/11/17 00:11:03;;;;;;;45.50;32.92;;;16.80;71.20;;;;;;338908;29;893;-57
2023/11/17 00:11:14;;;;;;;44.50;31.85;;;16.80;71.20;;;;;;338955;29;1166;-56
2023/11/17 00:11:25;;;;;;;43.33;31.85;;;16.80;71.20;;;;;;338876;29;1794;-56
2023/11/17 00:11:37;;;;;;;44.60;32.72;;;16.90;71.20;;;;;;338850;29;993;-56
2023/11/17 00:11:47;;;;;;;44.42;33.17;;;16.80;71.20;;;;;;338978;29;944;-57
2023/11/17 00:11:58;;;;;;;44.53;33.45;;;16.90;71.20;;;;;;338946;29;1044;-56
2023/11/17 00:12:09;;;;;;;43.90;33.05;;;16.80;71.20;;;;;;338840;29;893;-59
2023/11/17 00:12:20;;;;;;;45.53;32.80;;;16.80;71.20;;;;;;338916;29;1144;-55
2023/11/17 00:12:32;;;;;;;46.17;33.30;;;16.80;71.20;;;;;;338881;29;923;-56
2023/11/17 00:12:42;;;;;;;53.15;39.35;;;16.80;71.20;;;;;;338919;29;965;-56
2023/11/17 00:12:53;;;;;;;59.13;45.08;;;16.80;71.20;;;;;;338904;29;873;-56
2023/11/17 00:13:04;;;;;;;62.00;45.65;;;16.80;71.20;;;;;;338913;29;966;-57
2023/11/17 00:13:15;;;;;;;54.60;38.85;;;16.80;71.20;;;;;;338823;29;1027;-57
2023/11/17 00:13:25;;;;;;;52.23;36.77;;;16.90;71.20;;;;;;338872;29;1447;-55
2023/11/17 00:13:38;;;;;;;47.75;34.85;;;16.90;71.20;;;;;;338934;29;1000;-55
2023/11/17 00:13:51;;;;;;;48.20;34.80;;;16.90;71.20;;;;;;338840;29;1105;-56
2023/11/17 00:14:03;;;;;;;45.10;33.75;;;16.80;71.20;;;;;;338889;29;1191;-56
2023/11/17 00:14:14;;;;;;;43.83;33.13;;;16.80;71.20;;;;;;338924;29;877;-56
2023/11/17 00:14:25;;;;;;;45.83;32.95;;;16.80;71.20;;;;;;338825;29;981;-57
2023/11/17 00:14:36;;;;;;;46.40;33.13;;;16.80;71.20;;;;;;338957;29;826;-56
2023/11/17 00:14:47;;;;;;;46.90;33.42;;;16.80;71.20;;;;;;338949;29;923;-56
2023/11/17 00:14:58;;;;;;;44.47;32.17;;;16.80;71.10;;;;;;338862;29;1152;-56
2023/11/17 00:15:11;;;;;;;46.63;32.78;;;16.80;71.20;;;;;;338868;29;1270;-57
2023/11/17 00:15:23;;;;;;;50.63;33.90;;;16.80;71.20;;;;;;338952;29;823;-56
2023/11/17 00:15:34;;;;;;;50.17;33.78;;;16.80;71.10;;;;;;338814;29;1262;-56
2023/11/17 00:15:45;;;;;;;45.87;32.73;;;16.80;71.10;;;;;;338918;29;859;-55
2023/11/17 00:15:56;;;;;;;44.15;32.42;;;16.80;71.20;;;;;;338941;29;834;-56
2023/11/17 00:16:07;;;;;;;44.38;32.70;;;16.80;71.20;;;;;;338875;29;1096;-58
2023/11/17 00:16:18;;;;;;;47.00;33.25;;;16.80;71.20;;;;;;338841;29;1055;-56
2023/11/17 00:16:29;;;;;;;47.42;33.10;;;16.80;71.20;;;;;;338944;29;1877;-56
2023/11/17 00:16:39;;;;;;;47.60;32.90;;;16.80;71.20;;;;;;338924;29;822;-56
2023/11/17 00:16:50;;;;;;;45.45;32.35;;;16.80;71.20;;;;;;338879;29;997;-57
2023/11/17 00:17:01;;;;;;;46.57;32.67;;;16.80;71.20;;;;;;338876;29;945;-56
2023/11/17 00:17:12;;;;;;;45.27;32.27;;;16.80;71.20;;;;;;338968;29;807;-55
2023/11/17 00:17:22;;;;;;;45.42;32.42;;;16.80;71.20;;;;;;338901;29;1140;-58
2023/11/17 00:17:33;;;;;;;43.58;31.90;;;16.80;71.20;;;;;;338899;29;986;-56
2023/11/17 00:17:44;;;;;;;43.10;31.33;;;16.80;71.20;;;;;;338790;29;1101;-57
2023/11/17 00:17:54;;;;;;;43.70;30.83;;;16.80;71.30;;;;;;338871;29;954;-56
2023/11/17 00:18:05;;;;;;;44.53;31.17;;;16.80;71.30;;;;;;338887;29;1105;-57
2023/11/17 00:18:16;;;;;;;45.75;31.98;;;16.80;71.30;;;;;;339002;29;877;-56
2023/11/17 00:18:26;;;;;;;43.83;31.93;;;16.70;71.30;;;;;;338785;29;1691;-57
2023/11/17 00:18:37;;;;;;;44.10;32.27;;;16.80;71.30;;;;;;338900;29;1089;-56
2023/11/17 00:18:48;;;;;;;46.15;32.75;;;16.80;71.30;;;;;;338983;29;826;-55
2023/11/17 00:18:59;;;;;;;47.88;33.47;;;16.80;71.20;;;;;;338953;29;993;-58
2023/11/17 00:19:10;;;;;;;47.80;33.88;;;16.80;71.20;;;;;;338838;29;930;-56
2023/11/17 00:19:20;;;;;;;47.57;34.37;;;16.80;71.20;;;;;;338906;29;973;-57
2023/11/17 00:19:31;;;;;;;46.53;33.78;;;16.70;71.20;;;;;;338901;29;807;-55
2023/11/17 00:19:44;;;;;;;46.55;33.42;;;16.80;71.20;;;;;;338908;29;1872;-55
2023/11/17 00:19:55;;;;;;;47.65;33.25;;;16.70;71.20;;;;;;338855;29;909;-56
2023/11/17 00:20:06;;;;;;;48.60;33.55;;;16.80;71.20;;;;;;338900;29;969;-57
2023/11/17 00:20:20;;;;;;;50.38;33.92;;;16.80;71.20;;;;;;338923;29;937;-56
2023/11/17 00:20:31;;;;;;;48.20;33.90;;;16.80;71.30;;;;;;338863;29;919;-56
2023/11/17 00:20:42;;;;;;;46.75;33.15;;;16.80;71.20;;;;;;338918;29;989;-57
2023/11/17 00:20:54;;;;;;;47.03;33.45;;;16.80;71.30;;;;;;338904;29;962;-56
2023/11/17 00:21:06;;;;;;;47.75;34.30;;;16.70;71.30;;;;;;338873;29;1191;-56
2023/11/17 00:21:17;;;;;;;47.35;34.15;;;16.70;71.30;;;;;;338812;29;1120;-56
2023/11/17 00:21:28;;;;;;;48.20;33.85;;;16.80;71.40;;;;;;338923;29;1041;-56
2023/11/17 00:21:38;;;;;;;51.20;34.30;;;16.70;71.40;;;;;;338925;29;909;-57
2023/11/17 00:21:49;;;;;;;50.38;34.03;;;16.70;71.40;;;;;;338838;29;1109;-56
2023/11/17 00:22:00;;;;;;;47.67;33.33;;;16.80;71.40;;;;;;338799;29;1019;-56
2023/11/17 00:22:10;;;;;;;44.90;32.60;;;16.70;71.50;;;;;;338830;29;1113;-57
2023/11/17 00:22:21;;;;;;;46.95;33.35;;;16.80;71.50;;;;;;338900;29;818;-58
2023/11/17 00:22:32;;;;;;;48.65;33.85;;;16.70;71.50;;;;;;338940;29;989;-57
2023/11/17 00:22:43;;;;;;;48.97;33.63;;;16.70;71.50;;;;;;338824;29;1085;-56
2023/11/17 00:22:53;;;;;;;48.58;33.47;;;16.80;71.50;;;;;;338801;29;1452;-57
2023/11/17 00:23:04;;;;;;;50.58;34.35;;;16.70;71.50;;;;;;338977;29;831;-57
2023/11/17 00:23:15;;;;;;;50.05;34.22;;;16.70;71.40;;;;;;338835;29;1104;-57
2023/11/17 00:23:27;;;;;;;48.58;34.05;;;16.70;71.40;;;;;;338803;29;934;-56
2023/11/17 00:23:38;;;;;;;45.70;32.28;;;16.70;71.40;;;;;;338882;29;1086;-56
2023/11/17 00:23:49;;;;;;;44.33;31.48;;;16.80;71.40;;;;;;338934;29;1005;-56
2023/11/17 00:24:00;;;;;;;43.70;31.43;;;16.70;71.50;;;;;;338928;29;952;-56
2023/11/17 00:24:10;;;;;;;46.60;33.20;;;16.80;71.50;;;;;;338880;29;1020;-55
2023/11/17 00:24:21;;;;;;;45.63;32.85;;;16.80;71.40;;;;;;338939;29;862;-56
2023/11/17 00:24:32;;;;;;;45.63;33.00;;;16.70;71.40;;;;;;338814;29;1458;-56
2023/11/17 00:24:43;;;;;;;44.65;32.25;;;16.70;71.40;;;;;;338869;29;1112;-56
2023/11/17 00:24:54;;;;;;;44.72;32.13;;;16.80;71.40;;;;;;338846;29;910;-55
2023/11/17 00:25:05;;;;;;;45.75;31.90;;;16.70;71.40;;;;;;338958;29;1001;-56
2023/11/17 00:25:17;;;;;;;45.63;31.98;;;16.80;71.40;;;;;;338938;29;941;-55
2023/11/17 00:25:28;;;;;;;46.20;32.05;;;16.80;71.30;;;;;;338860;29;1029;-56
2023/11/17 00:25:39;;;;;;;47.55;32.42;;;16.80;71.30;;;;;;338947;29;969;-57
2023/11/17 00:25:50;;;;;;;46.55;33.05;;;16.80;71.30;;;;;;338940;29;1048;-56
2023/11/17 00:26:00;;;;;;;44.83;33.10;;;16.80;71.20;;;;;;338847;29;1157;-56
2023/11/17 00:26:11;;;;;;;44.70;32.83;;;16.80;71.20;;;;;;338857;29;922;-56
2023/11/17 00:26:25;;;;;;;45.10;31.85;;;16.80;71.10;;;;;;338928;29;1044;-56
2023/11/17 00:26:36;;;;;;;46.50;31.90;;;16.80;71.10;;;;;;338927;29;959;-55
2023/11/17 00:26:47;;;;;;;45.75;31.90;;;16.80;71.10;;;;;;338872;29;1020;-56
2023/11/17 00:26:59;;;;;;;44.72;31.92;;;16.80;71.10;;;;;;338919;29;1000;-55
2023/11/17 00:27:10;;;;;;;45.72;32.10;;;16.80;71.10;;;;;;338901;29;1048;-55
2023/11/17 00:27:21;;;;;;;46.63;32.17;;;16.80;71.20;;;;;;338817;29;913;-55
2023/11/17 00:27:35;;;;;;;46.15;32.30;;;16.80;71.20;;;;;;338925;29;878;-55
2023/11/17 00:27:47;;;;;;;45.10;32.35;;;16.80;71.20;;;;;;338905;29;968;-57
2023/11/17 00:27:58;;;;;;;45.40;32.42;;;16.80;71.20;;;;;;338865;29;922;-55
2023/11/17 00:28:10;;;;;;;46.43;32.87;;;16.80;71.20;;;;;;338933;29;945;-57
2023/11/17 00:28:21;;;;;;;46.30;32.47;;;16.80;71.20;;;;;;338908;29;989;-57
2023/11/17 00:28:39;;;;;;;45.55;32.22;;;16.80;71.30;;;;;;338831;29;993;-56
2023/11/17 00:28:53;;;;;;;44.58;32.53;;;16.80;71.30;;;;;;338945;29;887;-56
2023/11/17 00:29:06;;;;;;;45.60;32.50;;;16.80;71.30;;;;;;338939;29;1147;-55
2023/11/17 00:29:18;;;;;;;44.53;31.42;;;16.80;71.30;;;;;;338812;29;1124;-55
2023/11/17 00:29:29;;;;;;;44.88;31.80;;;16.80;71.30;;;;;;338919;29;1005;-58
2023/11/17 00:29:40;;;;;;;47.08;33.03;;;16.80;71.20;;;;;;338887;29;835;-55
2023/11/17 00:29:50;;;;;;;47.50;34.03;;;16.80;71.20;;;;;;338833;29;981;-57
2023/11/17 00:30:01;;;;;;;47.08;33.92;;;16.70;71.20;;;;;;338935;29;1293;-55
2023/11/17 00:30:14;;;;;;;45.92;32.95;;;16.70;71.30;;;;;;338832;29;1903;-56
2023/11/17 00:30:24;;;;;;;45.25;31.60;;;16.80;71.30;;;;;;338928;29;1051;-56
2023/11/17 00:30:35;;;;;;;45.28;31.13;;;16.70;71.30;;;;;;338898;29;924;-58
2023/11/17 00:30:46;;;;;;;45.43;31.13;;;16.70;71.40;;;;;;338807;29;1128;-57
2023/11/17 00:30:57;;;;;;;44.03;31.20;;;16.80;71.40;;;;;;338852;29;1128;-55
2023/11/17 00:31:09;;;;;;;44.42;31.73;;;16.70;71.40;;;;;;338926;29;842;-55
2023/11/17 00:31:20;;;;;;;43.55;31.58;;;16.70;71.40;;;;;;338912;29;1814;-57
2023/11/17 00:31:32;;;;;;;44.96;31.62;;;16.70;71.40;;;;;;338910;29;1147;-57
2023/11/17 00:31:43;;;;;;;44.50;31.40;;;16.70;71.40;;;;;;338890;29;910;-56
2023/11/17 00:31:55;;;;;;;44.88;31.30;;;16.80;71.50;;;;;;338950;29;826;-56
2023/11/17 00:32:06;;;;;;;44.05;31.35;;;16.70;71.50;;;;;;338917;29;1116;-56
2023/11/17 00:32:17;;;;;;;42.85;31.08;;;16.70;71.50;;;;;;338926;29;881;-55
2023/11/17 00:32:28;;;;;;;42.38;30.73;;;16.70;71.50;;;;;;338875;29;1057;-56
2023/11/17 00:32:38;;;;;;;40.67;30.10;;;16.70;71.50;;;;;;338858;29;1035;-56
2023/11/17 00:32:49;;;;;;;41.05;30.10;;;16.70;71.50;;;;;;338883;29;1045;-56
2023/11/17 00:33:01;;;;;;;39.33;29.92;;;16.80;71.50;;;;;;338845;29;1069;-57
2023/11/17 00:33:12;;;;;;;40.88;30.83;;;16.70;71.50;;;;;;338860;29;1232;-56
2023/11/17 00:33:23;;;;;;;43.10;31.38;;;16.70;71.50;;;;;;338937;29;984;-56
2023/11/17 00:33:34;;;;;;;45.72;32.20;;;16.80;71.40;;;;;;338883;29;992;-55
2023/11/17 00:33:45;;;;;;;45.38;32.17;;;16.80;71.40;;;;;;338861;29;1048;-57
2023/11/17 00:33:55;;;;;;;45.13;32.10;;;16.70;71.40;;;;;;338863;29;925;-56
2023/11/17 00:34:07;;;;;;;43.67;31.10;;;16.70;71.40;;;;;;338897;29;865;-58
2023/11/17 00:34:17;;;;;;;41.83;30.10;;;16.80;71.40;;;;;;338867;29;1315;-56
2023/11/17 00:34:28;;;;;;;41.53;29.90;;;16.70;71.50;;;;;;338894;29;887;-56
2023/11/17 00:34:39;;;;;;;42.70;30.88;;;16.80;71.50;;;;;;338940;29;948;-57
2023/11/17 00:34:49;;;;;;;43.45;30.85;;;16.70;71.50;;;;;;338908;29;850;-56
2023/11/17 00:35:00;;;;;;;42.17;30.58;;;16.70;71.50;;;;;;338898;29;1202;-57
2023/11/17 00:35:11;;;;;;;42.35;30.70;;;16.70;71.50;;;;;;338892;29;968;-56
2023/11/17 00:35:22;;;;;;;44.35;31.60;;;16.80;71.50;;;;;;338800;29;1100;-56
2023/11/17 00:35:33;;;;;;;45.60;31.93;;;16.80;71.40;;;;;;338875;29;1523;-57
2023/11/17 00:35:47;;;;;;;45.47;31.10;;;16.70;71.40;;;;;;338884;29;1516;-56
2023/11/17 00:35:57;;;;;;;45.70;31.25;;;16.70;71.40;;;;;;338920;29;931;-56
2023/11/17 00:36:09;;;;;;;43.78;31.13;;;16.80;71.40;;;;;;338865;29;965;-57
2023/11/17 00:36:20;;;;;;;43.08;31.38;;;16.70;71.40;;;;;;338841;29;1400;-55
2023/11/17 00:36:31;;;;;;;45.72;32.15;;;16.80;71.40;;;;;;338936;29;1068;-56
2023/11/17 00:36:45;;;;;;;48.03;33.17;;;16.80;71.30;;;;;;338865;29;1171;-57
2023/11/17 00:36:58;;;;;;;50.60;34.30;;;16.80;71.30;;;;;;338861;29;977;-55
2023/11/17 00:37:09;;;;;;;48.45;32.80;;;16.70;71.30;;;;;;338789;29;1195;-55
2023/11/17 00:37:21;;;;;;;46.90;32.03;;;16.70;71.30;;;;;;338874;29;1143;-56
2023/11/17 00:37:32;;;;;;;46.25;32.38;;;16.80;71.40;;;;;;338934;29;1078;-58
2023/11/17 00:37:43;;;;;;;46.78;32.90;;;16.80;71.40;;;;;;338916;29;981;-57
2023/11/17 00:37:54;;;;;;;45.53;32.45;;;16.80;71.40;;;;;;338867;29;886;-57
2023/11/17 00:38:05;;;;;;;46.72;32.55;;;16.80;71.40;;;;;;338722;29;1172;-56
2023/11/17 00:38:16;;;;;;;47.65;32.92;;;16.80;71.40;;;;;;338890;29;1180;-55
2023/11/17 00:38:31;;;;;;;49.30;33.67;;;16.80;71.40;;;;;;338885;29;1633;-57
2023/11/17 00:38:42;;;;;;;47.60;32.80;;;16.80;71.30;;;;;;338865;29;1426;-56
2023/11/17 00:38:52;;;;;;;47.05;32.55;;;16.80;71.30;;;;;;338770;29;1032;-57
2023/11/17 00:39:08;;;;;;;47.00;32.33;;;16.80;71.40;;;;;;338910;29;956;-57
2023/11/17 00:39:21;;;;;;;47.17;32.72;;;16.80;71.40;;;;;;338897;29;948;-57
2023/11/17 00:39:31;;;;;;;46.50;32.83;;;16.80;71.40;;;;;;338851;29;1107;-55
2023/11/17 00:39:42;;;;;;;45.87;31.73;;;16.80;71.40;;;;;;338853;29;1032;-56
2023/11/17 00:39:54;;;;;;;45.73;31.83;;;16.80;71.40;;;;;;338881;29;973;-56
2023/11/17 00:40:08;;;;;;;44.50;31.63;;;16.70;71.40;;;;;;338850;29;1132;-56
2023/11/17 00:40:19;;;;;;;43.50;31.88;;;16.70;71.50;;;;;;338860;29;1575;-57
2023/11/17 00:40:30;;;;;;;43.85;31.88;;;16.80;71.50;;;;;;338776;29;1104;-58
2023/11/17 00:40:41;;;;;;;43.70;32.57;;;16.70;71.50;;;;;;338890;29;806;-57
2023/11/17 00:40:51;;;;;;;45.50;32.83;;;16.80;71.40;;;;;;338836;29;1084;-56
2023/11/17 00:41:04;;;;;;;46.85;33.13;;;16.70;71.50;;;;;;338756;29;1456;-56
2023/11/17 00:41:15;;;;;;;48.00;32.63;;;16.70;71.50;;;;;;338867;29;1000;-56
2023/11/17 00:41:26;;;;;;;46.90;32.60;;;16.70;71.50;;;;;;338825;29;1826;-55
2023/11/17 00:41:37;;;;;;;44.23;31.53;;;16.70;71.50;;;;;;338869;29;799;-56
2023/11/17 00:41:47;;;;;;;44.85;31.80;;;16.70;71.50;;;;;;338941;29;885;-56
2023/11/17 00:41:58;;;;;;;45.10;31.40;;;16.70;71.50;;;;;;338792;29;1017;-57
2023/11/17 00:42:10;;;;;;;46.20;31.73;;;16.80;71.50;;;;;;338843;29;836;-56
2023/11/17 00:42:21;;;;;;;45.97;31.77;;;16.70;71.50;;;;;;338896;29;1071;-56
2023/11/17 00:42:32;;;;;;;45.85;32.08;;;16.70;71.50;;;;;;338830;29;1000;-57
2023/11/17 00:42:42;;;;;;;45.38;31.88;;;16.70;71.50;;;;;;338930;29;1089;-55
2023/11/17 00:42:53;;;;;;;47.40;31.80;;;16.80;71.50;;;;;;338927;29;826;-56
2023/11/17 00:43:04;;;;;;;46.25;31.73;;;16.70;71.50;;;;;;338797;29;941;-56
2023/11/17 00:43:15;;;;;;;46.92;31.83;;;16.70;71.50;;;;;;338929;29;954;-55
2023/11/17 00:43:29;;;;;;;46.13;31.92;;;16.80;71.50;;;;;;338909;29;933;-56
2023/11/17 00:43:40;;;;;;;44.40;31.35;;;16.70;71.50;;;;;;338897;29;944;-57
2023/11/17 00:43:50;;;;;;;43.88;31.67;;;16.70;71.50;;;;;;338899;29;1024;-57
2023/11/17 00:44:01;;;;;;;44.30;32.00;;;16.70;71.50;;;;;;338843;29;1014;-57
2023/11/17 00:44:13;;;;;;;45.85;31.63;;;16.70;71.50;;;;;;338729;29;1311;-57
2023/11/17 00:44:24;;;;;;;46.03;32.08;;;16.70;71.50;;;;;;338901;29;838;-56
2023/11/17 00:44:34;;;;;;;53.47;33.67;;;16.70;71.50;;;;;;338747;29;1147;-55
2023/11/17 00:44:46;;;;;;;56.25;35.10;;;16.70;71.50;;;;;;338908;29;810;-56
2023/11/17 00:44:57;;;;;;;53.53;33.72;;;16.70;71.40;;;;;;338878;29;996;-55
2023/11/17 00:45:09;;;;;;;49.72;32.75;;;16.70;71.40;;;;;;338773;29;1547;-55
2023/11/17 00:45:20;;;;;;;49.02;32.66;;;16.70;71.50;;;;;;338888;29;954;-56
2023/11/17 00:45:31;;;;;;;48.53;32.30;;;16.70;71.40;;;;;;338883;29;1080;-56
2023/11/17 00:45:42;;;;;;;45.33;31.42;;;16.70;71.50;;;;;;338802;29;1028;-57
2023/11/17 00:46:00;;;;;;;46.60;31.80;;;16.70;71.50;;;;;;338863;29;1072;-56
2023/11/17 00:46:11;;;;;;;47.35;31.88;;;16.70;71.50;;;;;;338799;29;1021;-56
2023/11/17 00:46:22;;;;;;;47.58;32.17;;;16.70;71.50;;;;;;338836;29;1025;-56
2023/11/17 00:46:33;;;;;;;47.50;32.47;;;16.70;71.50;;;;;;338878;29;1104;-55
2023/11/17 00:46:45;;;;;;;48.75;33.15;;;16.70;71.50;;;;;;338787;29;1960;-56
2023/11/17 00:46:56;;;;;;;47.58;31.95;;;16.70;71.50;;;;;;338859;29;946;-56
2023/11/17 00:47:07;;;;;;;45.30;31.50;;;16.70;71.50;;;;;;338843;29;1116;-56
2023/11/17 00:47:18;;;;;;;43.42;31.02;;;16.70;71.50;;;;;;338807;29;942;-56
2023/11/17 00:47:28;;;;;;;43.83;30.93;;;16.70;71.50;;;;;;338860;29;941;-57
2023/11/17 00:47:40;;;;;;;42.05;30.33;;;16.70;71.60;;;;;;338891;29;1100;-55
2023/11/17 00:47:51;;;;;;;41.70;29.58;;;16.70;71.60;;;;;;338758;29;1120;-56
2023/11/17 00:48:03;;;;;;;43.63;30.65;;;16.70;71.60;;;;;;338900;29;1036;-57
2023/11/17 00:48:14;;;;;;;45.58;31.75;;;16.70;71.60;;;;;;338830;29;864;-56
2023/11/17 00:48:27;;;;;;;45.20;31.78;;;16.70;71.50;;;;;;338782;29;1157;-57
2023/11/17 00:48:38;;;;;;;44.20;30.98;;;16.70;71.60;;;;;;338901;29;961;-56
2023/11/17 00:48:48;;;;;;;42.92;30.88;;;16.70;71.60;;;;;;338888;29;941;-57
2023/11/17 00:49:03;;;;;;;44.80;31.57;;;16.70;71.60;;;;;;338823;29;883;-56
2023/11/17 00:49:14;;;;;;;46.80;32.58;;;16.70;71.60;;;;;;338905;29;921;-56
2023/11/17 00:49:25;;;;;;;47.20;32.63;;;16.70;71.60;;;;;;338795;29;1060;-56
2023/11/17 00:49:36;;;;;;;46.13;31.95;;;16.70;71.60;;;;;;338788;29;1088;-56
2023/11/17 00:49:46;;;;;;;47.05;32.25;;;16.70;71.70;;;;;;338903;29;1095;-56
2023/11/17 00:49:57;;;;;;;49.45;32.53;;;16.70;71.70;;;;;;338869;29;977;-57
2023/11/17 00:50:11;;;;;;;49.42;32.25;;;16.70;71.70;;;;;;338798;29;1906;-56
2023/11/17 00:50:22;;;;;;;46.85;31.40;;;16.70;71.80;;;;;;338919;29;834;-56
2023/11/17 00:50:34;;;;;;;45.03;31.15;;;16.70;71.80;;;;;;338895;29;1385;-56
2023/11/17 00:50:45;;;;;;;45.56;31.20;;;16.70;71.90;;;;;;338778;29;1013;-56
2023/11/17 00:50:56;;;;;;;45.83;30.90;;;16.70;72.00;;;;;;338835;29;1008;-56
2023/11/17 00:51:06;;;;;;;46.33;30.77;;;16.70;72.00;;;;;;338871;29;846;-55
2023/11/17 00:51:18;;;;;;;47.67;31.75;;;16.70;72.00;;;;;;338716;29;1137;-57
2023/11/17 00:51:30;;;;;;;46.38;31.75;;;16.70;71.90;;;;;;338916;29;958;-56
2023/11/17 00:51:41;;;;;;;47.55;31.73;;;16.70;71.90;;;;;;338885;29;905;-57
2023/11/17 00:51:52;;;;;;;49.00;31.88;;;16.70;71.90;;;;;;338784;29;1104;-58
2023/11/17 00:52:05;;;;;;;51.83;32.83;;;16.70;71.90;;;;;;338849;29;997;-57
2023/11/17 00:52:16;;;;;;;54.22;33.75;;;16.70;72.00;;;;;;338922;29;977;-55
2023/11/17 00:52:27;;;;;;;54.60;33.63;;;16.70;71.90;;;;;;338825;29;912;-56
2023/11/17 00:52:39;;;;;;;50.53;33.00;;;16.70;71.90;;;;;;338827;29;1506;-55
2023/11/17 00:52:52;;;;;;;45.08;31.42;;;16.70;72.00;;;;;;338891;29;1061;-58
2023/11/17 00:53:05;;;;;;;44.08;30.77;;;16.70;72.00;;;;;;338869;29;924;-57
2023/11/17 00:53:22;;;;;;;45.83;31.95;;;16.70;72.00;;;;;;338881;29;1179;-57
2023/11/17 00:53:33;;;;;;;47.70;32.45;;;16.70;72.00;;;;;;338789;29;1116;-55
2023/11/17 00:53:43;;;;;;;46.55;31.52;;;16.70;72.00;;;;;;338882;29;858;-56
2023/11/17 00:54:00;;;;;;;42.47;30.48;;;16.70;72.00;;;;;;338834;29;1020;-56
2023/11/17 00:54:13;;;;;;;42.58;30.42;;;16.70;72.00;;;;;;338868;29;973;-57
2023/11/17 00:54:26;;;;;;;44.75;31.35;;;16.70;72.00;;;;;;338908;29;949;-56
2023/11/17 00:54:42;;;;;;;44.22;31.05;;;16.70;72.00;;;;;;338784;29;1400;-57
2023/11/17 00:54:55;;;;;;;42.88;30.50;;;16.70;72.00;;;;;;338829;29;1139;-56
2023/11/17 00:55:07;;;;;;;44.35;30.48;;;16.70;72.00;;;;;;338834;29;1125;-56
2023/11/17 00:55:18;;;;;;;43.50;30.30;;;16.70;72.00;;;;;;338856;29;1104;-56
2023/11/17 00:55:29;;;;;;;44.13;30.17;;;16.70;72.00;;;;;;338874;29;1139;-56
2023/11/17 00:55:39;;;;;;;44.47;30.90;;;16.70;72.00;;;;;;338754;29;1101;-55
2023/11/17 00:55:50;;;;;;;46.63;31.25;;;16.70;72.00;;;;;;338869;29;869;-55
2023/11/17 00:56:04;;;;;;;45.70;31.55;;;16.70;72.00;;;;;;338858;29;1844;-55
2023/11/17 00:56:16;;;;;;;44.35;30.67;;;16.70;72.00;;;;;;338804;29;1124;-56
2023/11/17 00:56:27;;;;;;;43.03;30.38;;;16.70;72.00;;;;;;338895;29;1028;-56
2023/11/17 00:56:39;;;;;;;43.40;30.13;;;16.70;72.00;;;;;;338924;29;997;-56
2023/11/17 00:56:54;;;;;;;44.13;30.52;;;16.70;72.00;;;;;;338797;29;1372;-54
2023/11/17 00:57:04;;;;;;;44.00;30.83;;;16.70;71.90;;;;;;338890;29;1015;-56
2023/11/17 00:57:16;;;;;;;42.20;29.97;;;16.70;71.90;;;;;;338864;29;1144;-56
2023/11/17 00:57:27;;;;;;;40.28;29.35;;;16.70;71.90;;;;;;338848;29;925;-56
2023/11/17 00:57:38;;;;;;;40.97;29.63;;;16.70;71.90;;;;;;338807;29;1080;-56
2023/11/17 00:57:48;;;;;;;44.47;30.90;;;16.70;71.90;;;;;;338907;29;848;-57
2023/11/17 00:57:59;;;;;;;45.37;31.07;;;16.70;71.90;;;;;;338823;29;1183;-56
2023/11/17 00:58:10;;;;;;;45.03;30.70;;;16.70;71.80;;;;;;338943;29;865;-56
2023/11/17 00:58:23;;;;;;;43.10;30.30;;;16.60;71.80;;;;;;338852;29;972;-56
2023/11/17 00:58:34;;;;;;;43.03;29.95;;;16.70;71.90;;;;;;338801;29;969;-55
2023/11/17 00:58:45;;;;;;;43.47;30.30;;;16.70;71.90;;;;;;338828;29;1104;-57
2023/11/17 00:58:56;;;;;;;44.17;29.90;;;16.70;71.90;;;;;;338855;29;1179;-56
2023/11/17 00:59:11;;;;;;;42.17;29.73;;;16.70;71.90;;;;;;338786;29;1040;-55
2023/11/17 00:59:22;;;;;;;41.78;29.52;;;16.70;71.90;;;;;;338858;29;1191;-56